CheckWX is a tool to help pilots better visualize weather data.  It is not intended as a substitute for an official pre-flight weather briefing.

16:05:59 UTC

EBBL TAF
Kleine Brogel Air Base Airport
Kleine Brogel, Belgium
TAF EBBL 241141Z 2413/2422 14008KT 9999 FEW040 SCT300

Jun-24@
13:00 UTC

Jun-24 @ 13:00 UTC

Jun-24@
22:00 UTC

Jun-24 @ 22:00 UTC

TAF EBBL 241141Z 2413/2422 14008KT 9999 FEW040 SCT300
Wind
  • 140° at 8 KTS
Cloud Levels
  • Few at 4,000' AGL
  • Scattered at 30,000' AGL